sensor_id;sensor_type;location;lat;lon;timestamp;temperature;humidity
52459;DHT22;38372;52.902;6.024;2023-11-21T07:11:10;9.60;99.90
52459;DHT22;38372;52.902;6.024;2023-11-21T07:13:36;9.60;99.90
52459;DHT22;38372;52.902;6.024;2023-11-21T07:16:02;9.60;99.90
52459;DHT22;38372;52.902;6.024;2023-11-21T07:18:28;9.60;99.90
52459;DHT22;38372;52.902;6.024;2023-11-21T07:20:54;9.60;99.90
52459;DHT22;38372;52.902;6.024;2023-11-21T07:23:20;9.60;99.90
52459;DHT22;38372;52.902;6.024;2023-11-21T07:25:48;9.60;99.90
52459;DHT22;38372;52.902;6.024;2023-11-21T07:28:14;9.60;99.90
52459;DHT22;38372;52.902;6.024;2023-11-21T07:30:40;9.60;99.90
52459;DHT22;38372;52.902;6.024;2023-11-21T07:33:05;9.60;99.90
52459;DHT22;38372;52.902;6.024;2023-11-21T07:35:32;9.60;99.90
52459;DHT22;38372;52.902;6.024;2023-11-21T07:38:01;9.60;99.90
52459;DHT22;38372;52.902;6.024;2023-11-21T07:40:27;9.60;99.90
52459;DHT22;38372;52.902;6.024;2023-11-21T07:42:53;9.60;99.90
52459;DHT22;38372;52.902;6.024;2023-11-21T07:45:19;9.60;99.90
52459;DHT22;38372;52.902;6.024;2023-11-21T07:47:57;9.60;99.90
52459;DHT22;38372;52.902;6.024;2023-11-21T07:53:58;9.60;99.90
52459;DHT22;38372;52.902;6.024;2023-11-21T07:56:24;9.60;99.90
52459;DHT22;38372;52.902;6.024;2023-11-21T07:58:50;9.60;99.90
52459;DHT22;38372;52.902;6.024;2023-11-21T08:01:16;9.60;99.90
52459;DHT22;38372;52.902;6.024;2023-11-21T08:03:42;9.70;99.90
52459;DHT22;38372;52.902;6.024;2023-11-21T08:06:10;9.60;99.90
52459;DHT22;38372;52.902;6.024;2023-11-21T08:08:37;9.70;99.90
52459;DHT22;38372;52.902;6.024;2023-11-21T08:11:03;9.60;99.90
52459;DHT22;38372;52.902;6.024;2023-11-21T08:13:30;9.60;99.90
52459;DHT22;38372;52.902;6.024;2023-11-21T08:15:58;9.60;99.90
52459;DHT22;38372;52.902;6.024;2023-11-21T08:18:28;9.60;99.90
52459;DHT22;38372;52.902;6.024;2023-11-21T08:20:57;9.60;99.90
52459;DHT22;38372;52.902;6.024;2023-11-21T08:23:43;9.60;99.90
52459;DHT22;38372;52.902;6.024;2023-11-21T08:26:15;9.60;99.90
52459;DHT22;38372;52.902;6.024;2023-11-21T08:28:50;9.60;99.90
52459;DHT22;38372;52.902;6.024;2023-11-21T08:31:25;9.60;99.90
52459;DHT22;38372;52.902;6.024;2023-11-21T08:33:52;9.60;99.90
52459;DHT22;38372;52.902;6.024;2023-11-21T08:36:22;9.60;99.90
52459;DHT22;38372;52.902;6.024;2023-11-21T08:38:50;9.60;99.90
52459;DHT22;38372;52.902;6.024;2023-11-21T08:41:17;9.60;99.90
52459;DHT22;38372;52.902;6.024;2023-11-21T08:43:49;9.60;99.90
52459;DHT22;38372;52.902;6.024;2023-11-21T08:46:16;9.60;99.90
52459;DHT22;38372;52.902;6.024;2023-11-21T08:48:45;9.60;99.90
52459;DHT22;38372;52.902;6.024;2023-11-21T08:51:11;9.60;99.90
52459;DHT22;38372;52.902;6.024;2023-11-21T08:53:38;9.60;99.90
52459;DHT22;38372;52.902;6.024;2023-11-21T08:56:04;9.60;99.90
52459;DHT22;38372;52.902;6.024;2023-11-21T08:58:31;9.60;99.90
52459;DHT22;38372;52.902;6.024;2023-11-21T09:00:58;9.60;99.90
52459;DHT22;38372;52.902;6.024;2023-11-21T09:03:24;9.60;99.90
52459;DHT22;38372;52.902;6.024;2023-11-21T09:05:50;9.60;99.90
52459;DHT22;38372;52.902;6.024;2023-11-21T09:08:16;9.60;99.90
52459;DHT22;38372;52.902;6.024;2023-11-21T09:10:42;9.60;99.90
52459;DHT22;38372;52.902;6.024;2023-11-21T09:13:10;9.60;99.90
52459;DHT22;38372;52.902;6.024;2023-11-21T09:15:37;9.60;99.90
52459;DHT22;38372;52.902;6.024;2023-11-21T09:18:03;9.50;99.90
52459;DHT22;38372;52.902;6.024;2023-11-21T09:20:28;9.50;99.90
52459;DHT22;38372;52.902;6.024;2023-11-21T09:22:54;9.50;99.90
52459;DHT22;38372;52.902;6.024;2023-11-21T09:25:21;9.50;99.90
52459;DHT22;38372;52.902;6.024;2023-11-21T09:27:48;9.50;99.90
52459;DHT22;38372;52.902;6.024;2023-11-21T09:30:14;9.50;99.90
52459;DHT22;38372;52.902;6.024;2023-11-21T09:32:40;9.50;99.90
52459;DHT22;38372;52.902;6.024;2023-11-21T09:35:06;9.50;99.90
52459;DHT22;38372;52.902;6.024;2023-11-21T09:37:35;9.40;99.90
52459;DHT22;38372;52.902;6.024;2023-11-21T09:40:01;9.50;99.90
52459;DHT22;38372;52.902;6.024;2023-11-21T09:42:40;9.50;99.90
52459;DHT22;38372;52.902;6.024;2023-11-21T09:45:29;9.50;99.90
52459;DHT22;38372;52.902;6.024;2023-11-21T09:47:59;9.50;99.90
52459;DHT22;38372;52.902;6.024;2023-11-21T09:50:26;9.60;99.90
52459;DHT22;38372;52.902;6.024;2023-11-21T09:55:26;9.70;99.90
52459;DHT22;38372;52.902;6.024;2023-11-21T09:57:54;9.70;99.90
52459;DHT22;38372;52.902;6.024;2023-11-21T10:00:22;9.70;99.90
52459;DHT22;38372;52.902;6.024;2023-11-21T10:02:49;9.70;99.90
52459;DHT22;38372;52.902;6.024;2023-11-21T10:05:16;9.60;99.90
52459;DHT22;38372;52.902;6.024;2023-11-21T10:07:46;9.60;99.90
52459;DHT22;38372;52.902;6.024;2023-11-21T10:10:13;9.60;99.90
52459;DHT22;38372;52.902;6.024;2023-11-21T10:12:47;9.50;99.90
52459;DHT22;38372;52.902;6.024;2023-11-21T10:15:14;9.60;99.90
52459;DHT22;38372;52.902;6.024;2023-11-21T10:17:44;9.60;99.90
52459;DHT22;38372;52.902;6.024;2023-11-21T10:20:11;9.70;99.90
52459;DHT22;38372;52.902;6.024;2023-11-21T10:22:41;9.70;99.90
52459;DHT22;38372;52.902;6.024;2023-11-21T10:25:10;9.80;99.90
52459;DHT22;38372;52.902;6.024;2023-11-21T10:27:36;9.80;99.90
52459;DHT22;38372;52.902;6.024;2023-11-21T10:30:05;9.90;99.90
52459;DHT22;38372;52.902;6.024;2023-11-21T10:32:31;10.00;99.90
52459;DHT22;38372;52.902;6.024;2023-11-21T10:34:59;10.00;99.90
52459;DHT22;38372;52.902;6.024;2023-11-21T10:37:26;10.00;99.90
52459;DHT22;38372;52.902;6.024;2023-11-21T10:39:59;9.90;99.90
52459;DHT22;38372;52.902;6.024;2023-11-21T10:42:25;9.90;99.90
52459;DHT22;38372;52.902;6.024;2023-11-21T10:44:51;9.80;99.90
52459;DHT22;38372;52.902;6.024;2023-11-21T10:47:17;9.70;99.90
52459;DHT22;38372;52.902;6.024;2023-11-21T10:49:44;9.70;99.90
52459;DHT22;38372;52.902;6.024;2023-11-21T10:52:13;9.70;99.90
52459;DHT22;38372;52.902;6.024;2023-11-21T10:54:46;9.60;99.90
52459;DHT22;38372;52.902;6.024;2023-11-21T10:57:17;9.60;99.90
52459;DHT22;38372;52.902;6.024;2023-11-21T10:59:46;9.60;99.90
52459;DHT22;38372;52.902;6.024;2023-11-21T11:02:24;9.50;99.90
52459;DHT22;38372;52.902;6.024;2023-11-21T11:04:54;9.50;99.90
52459;DHT22;38372;52.902;6.024;2023-11-21T11:07:27;9.50;99.90
52459;DHT22;38372;52.902;6.024;2023-11-21T11:09:58;9.50;99.90
52459;DHT22;38372;52.902;6.024;2023-11-21T11:12:25;9.50;99.90
52459;DHT22;38372;52.902;6.024;2023-11-21T11:14:51;9.60;99.90
52459;DHT22;38372;52.902;6.024;2023-11-21T11:17:19;9.70;99.90
52459;DHT22;38372;52.902;6.024;2023-11-21T11:19:48;9.70;99.90
52459;DHT22;38372;52.902;6.024;2023-11-21T11:22:44;9.90;99.90
52459;DHT22;38372;52.902;6.024;2023-11-21T11:28:17;10.10;99.90
52459;DHT22;38372;52.902;6.024;2023-11-21T11:34:07;9.80;99.90
52459;DHT22;38372;52.902;6.024;2023-11-21T11:37:03;9.70;99.90
52459;DHT22;38372;52.902;6.024;2023-11-21T11:39:32;9.60;99.90
52459;DHT22;38372;52.902;6.024;2023-11-21T11:42:02;9.50;99.90
52459;DHT22;38372;52.902;6.024;2023-11-21T11:50:09;9.30;99.90
52459;DHT22;38372;52.902;6.024;2023-11-21T11:52:55;9.40;99.90
52459;DHT22;38372;52.902;6.024;2023-11-21T11:55:24;9.40;99.90
52459;DHT22;38372;52.902;6.024;2023-11-21T11:57:54;9.40;99.90
52459;DHT22;38372;52.902;6.024;2023-11-21T12:03:00;9.40;99.90
52459;DHT22;38372;52.902;6.024;2023-11-21T12:05:30;9.30;99.90
52459;DHT22;38372;52.902;6.024;2023-11-21T12:08:00;9.30;99.90
52459;DHT22;38372;52.902;6.024;2023-11-21T12:10:34;9.30;99.90
52459;DHT22;38372;52.902;6.024;2023-11-21T12:13:08;9.20;99.90
52459;DHT22;38372;52.902;6.024;2023-11-21T12:15:36;9.30;99.90
52459;DHT22;38372;52.902;6.024;2023-11-21T12:18:03;9.30;99.90
52459;DHT22;38372;52.902;6.024;2023-11-21T12:20:30;9.40;99.90
52459;DHT22;38372;52.902;6.024;2023-11-21T12:22:59;9.50;99.90
52459;DHT22;38372;52.902;6.024;2023-11-21T12:25:29;9.50;99.90
52459;DHT22;38372;52.902;6.024;2023-11-21T12:27:58;9.50;99.90
52459;DHT22;38372;52.902;6.024;2023-11-21T12:30:31;9.60;99.90
52459;DHT22;38372;52.902;6.024;2023-11-21T12:32:58;9.60;99.90
52459;DHT22;38372;52.902;6.024;2023-11-21T12:35:27;9.60;99.90
52459;DHT22;38372;52.902;6.024;2023-11-21T12:37:54;9.60;99.90
52459;DHT22;38372;52.902;6.024;2023-11-21T12:40:23;9.50;99.90
52459;DHT22;38372;52.902;6.024;2023-11-21T12:42:54;9.40;99.90
52459;DHT22;38372;52.902;6.024;2023-11-21T12:45:25;9.40;99.90
52459;DHT22;38372;52.902;6.024;2023-11-21T12:48:00;9.40;99.90
52459;DHT22;38372;52.902;6.024;2023-11-21T12:50:30;9.30;99.90
52459;DHT22;38372;52.902;6.024;2023-11-21T12:53:10;9.30;99.90
52459;DHT22;38372;52.902;6.024;2023-11-21T12:55:43;9.40;99.90
52459;DHT22;38372;52.902;6.024;2023-11-21T12:58:15;9.60;99.90
52459;DHT22;38372;52.902;6.024;2023-11-21T13:00:46;9.60;99.90
52459;DHT22;38372;52.902;6.024;2023-11-21T13:03:15;9.70;99.90
52459;DHT22;38372;52.902;6.024;2023-11-21T13:05:51;9.60;99.90
52459;DHT22;38372;52.902;6.024;2023-11-21T13:08:21;9.50;99.90
52459;DHT22;38372;52.902;6.024;2023-11-21T13:10:53;9.50;99.90
52459;DHT22;38372;52.902;6.024;2023-11-21T13:13:20;9.50;99.90
52459;DHT22;38372;52.902;6.024;2023-11-21T13:15:57;9.50;99.90
52459;DHT22;38372;52.902;6.024;2023-11-21T13:18:27;9.50;99.90
52459;DHT22;38372;52.902;6.024;2023-11-21T13:21:04;9.40;99.90
52459;DHT22;38372;52.902;6.024;2023-11-21T13:23:41;9.30;99.90
52459;DHT22;38372;52.902;6.024;2023-11-21T13:26:08;9.20;99.90
52459;DHT22;38372;52.902;6.024;2023-11-21T13:28:35;9.10;99.90
52459;DHT22;38372;52.902;6.024;2023-11-21T13:31:02;9.00;99.90
52459;DHT22;38372;52.902;6.024;2023-11-21T13:33:38;8.90;99.90
52459;DHT22;38372;52.902;6.024;2023-11-21T13:36:06;8.80;99.90
52459;DHT22;38372;52.902;6.024;2023-11-21T13:38:35;8.70;99.90
52459;DHT22;38372;52.902;6.024;2023-11-21T13:41:03;8.60;99.90
52459;DHT22;38372;52.902;6.024;2023-11-21T13:43:32;8.60;99.90
52459;DHT22;38372;52.902;6.024;2023-11-21T13:45:59;8.60;99.90
52459;DHT22;38372;52.902;6.024;2023-11-21T13:48:38;8.50;99.90
52459;DHT22;38372;52.902;6.024;2023-11-21T13:51:09;8.50;99.90
52459;DHT22;38372;52.902;6.024;2023-11-21T13:53:47;8.50;99.90
52459;DHT22;38372;52.902;6.024;2023-11-21T13:56:16;8.40;99.90
52459;DHT22;38372;52.902;6.024;2023-11-21T13:58:50;8.30;99.90
52459;DHT22;38372;52.902;6.024;2023-11-21T14:01:20;8.30;99.90
52459;DHT22;38372;52.902;6.024;2023-11-21T14:04:00;8.20;99.90
52459;DHT22;38372;52.902;6.024;2023-11-21T14:06:51;8.20;99.90
52459;DHT22;38372;52.902;6.024;2023-11-21T14:09:19;8.20;99.90
52459;DHT22;38372;52.902;6.024;2023-11-21T14:11:51;8.20;99.90
52459;DHT22;38372;52.902;6.024;2023-11-21T14:14:21;8.30;99.90
52459;DHT22;38372;52.902;6.024;2023-11-21T14:16:47;8.30;99.90
52459;DHT22;38372;52.902;6.024;2023-11-21T14:19:13;8.50;99.90
52459;DHT22;38372;52.902;6.024;2023-11-21T14:21:43;8.60;99.90
52459;DHT22;38372;52.902;6.024;2023-11-21T14:24:10;8.70;99.90
52459;DHT22;38372;52.902;6.024;2023-11-21T14:26:42;8.70;99.90
52459;DHT22;38372;52.902;6.024;2023-11-21T14:29:09;8.70;99.90
52459;DHT22;38372;52.902;6.024;2023-11-21T14:31:36;8.70;99.90
52459;DHT22;38372;52.902;6.024;2023-11-21T14:34:02;8.60;99.90
52459;DHT22;38372;52.902;6.024;2023-11-21T14:36:29;8.60;99.90
52459;DHT22;38372;52.902;6.024;2023-11-21T14:38:54;8.60;99.90
52459;DHT22;38372;52.902;6.024;2023-11-21T14:41:20;8.50;99.90
52459;DHT22;38372;52.902;6.024;2023-11-21T14:43:46;8.50;99.90
52459;DHT22;38372;52.902;6.024;2023-11-21T14:46:15;8.50;99.90
52459;DHT22;38372;52.902;6.024;2023-11-21T14:48:42;8.50;99.90
52459;DHT22;38372;52.902;6.024;2023-11-21T14:51:11;8.40;99.90
52459;DHT22;38372;52.902;6.024;2023-11-21T14:53:57;8.40;99.90
52459;DHT22;38372;52.902;6.024;2023-11-21T14:56:32;8.40;99.90
52459;DHT22;38372;52.902;6.024;2023-11-21T14:59:02;8.40;99.90
52459;DHT22;38372;52.902;6.024;2023-11-21T15:01:34;8.40;99.90
52459;DHT22;38372;52.902;6.024;2023-11-21T15:04:21;8.40;99.90
52459;DHT22;38372;52.902;6.024;2023-11-21T15:07:00;8.40;99.90
52459;DHT22;38372;52.902;6.024;2023-11-21T15:09:25;8.40;99.90
52459;DHT22;38372;52.902;6.024;2023-11-21T15:11:57;8.40;99.90
52459;DHT22;38372;52.902;6.024;2023-11-21T15:14:29;8.30;99.90
52459;DHT22;38372;52.902;6.024;2023-11-21T15:17:00;8.30;99.90
52459;DHT22;38372;52.902;6.024;2023-11-21T15:19:26;8.30;99.90
52459;DHT22;38372;52.902;6.024;2023-11-21T15:21:54;8.30;99.90
52459;DHT22;38372;52.902;6.024;2023-11-21T15:24:20;8.30;99.90
52459;DHT22;38372;52.902;6.024;2023-11-21T15:26:46;8.20;99.90
52459;DHT22;38372;52.902;6.024;2023-11-21T15:29:11;8.20;99.90
52459;DHT22;38372;52.902;6.024;2023-11-21T15:31:39;8.10;99.90
52459;DHT22;38372;52.902;6.024;2023-11-21T15:34:09;8.00;99.90
52459;DHT22;38372;52.902;6.024;2023-11-21T15:36:38;8.00;99.90
52459;DHT22;38372;52.902;6.024;2023-11-21T15:39:04;7.90;99.90
52459;DHT22;38372;52.902;6.024;2023-11-21T15:41:31;7.80;99.90
52459;DHT22;38372;52.902;6.024;2023-11-21T15:43:57;7.80;99.90
52459;DHT22;38372;52.902;6.024;2023-11-21T15:46:23;7.70;99.90
52459;DHT22;38372;52.902;6.024;2023-11-21T15:48:49;7.60;99.90
52459;DHT22;38372;52.902;6.024;2023-11-21T15:51:20;7.50;99.90
52459;DHT22;38372;52.902;6.024;2023-11-21T15:53:46;7.50;99.90
52459;DHT22;38372;52.902;6.024;2023-11-21T15:56:12;7.40;99.90
52459;DHT22;38372;52.902;6.024;2023-11-21T15:58:41;7.40;99.90
52459;DHT22;38372;52.902;6.024;2023-11-21T16:01:11;7.50;99.90
52459;DHT22;38372;52.902;6.024;2023-11-21T16:03:39;7.50;99.90
52459;DHT22;38372;52.902;6.024;2023-11-21T16:06:05;7.50;99.90
52459;DHT22;38372;52.902;6.024;2023-11-21T16:08:34;7.60;99.90
52459;DHT22;38372;52.902;6.024;2023-11-21T16:11:01;7.60;99.90
52459;DHT22;38372;52.902;6.024;2023-11-21T16:13:27;7.60;99.90
52459;DHT22;38372;52.902;6.024;2023-11-21T16:15:53;7.60;99.90
52459;DHT22;38372;52.902;6.024;2023-11-21T16:18:20;7.60;99.90
52459;DHT22;38372;52.902;6.024;2023-11-21T16:20:47;7.60;99.90
52459;DHT22;38372;52.902;6.024;2023-11-21T16:23:16;7.70;99.90
52459;DHT22;38372;52.902;6.024;2023-11-21T16:25:43;7.60;99.90
52459;DHT22;38372;52.902;6.024;2023-11-21T16:28:09;7.60;99.90
52459;DHT22;38372;52.902;6.024;2023-11-21T16:30:34;7.60;99.90
52459;DHT22;38372;52.902;6.024;2023-11-21T16:33:01;7.50;99.90
52459;DHT22;38372;52.902;6.024;2023-11-21T16:35:28;7.40;99.90
52459;DHT22;38372;52.902;6.024;2023-11-21T16:37:54;7.30;99.90
52459;DHT22;38372;52.902;6.024;2023-11-21T16:40:21;7.20;99.90
52459;DHT22;38372;52.902;6.024;2023-11-21T16:42:47;7.10;99.90
52459;DHT22;38372;52.902;6.024;2023-11-21T16:45:13;7.00;99.90
52459;DHT22;38372;52.902;6.024;2023-11-21T16:47:42;6.80;99.90
52459;DHT22;38372;52.902;6.024;2023-11-21T16:50:08;6.80;99.90
52459;DHT22;38372;52.902;6.024;2023-11-21T16:52:34;6.70;99.90
52459;DHT22;38372;52.902;6.024;2023-11-21T16:55:00;6.60;99.90
52459;DHT22;38372;52.902;6.024;2023-11-21T16:57:26;6.50;99.90
52459;DHT22;38372;52.902;6.024;2023-11-21T16:59:52;6.40;99.90
52459;DHT22;38372;52.902;6.024;2023-11-21T17:02:18;6.30;99.90
52459;DHT22;38372;52.902;6.024;2023-11-21T17:04:44;6.20;99.90
52459;DHT22;38372;52.902;6.024;2023-11-21T17:07:21;6.10;99.90
52459;DHT22;38372;52.902;6.024;2023-11-21T17:09:48;6.10;99.90
52459;DHT22;38372;52.902;6.024;2023-11-21T17:12:14;6.10;99.90
52459;DHT22;38372;52.902;6.024;2023-11-21T17:14:41;6.00;99.90
52459;DHT22;38372;52.902;6.024;2023-11-21T17:17:09;5.90;99.90
52459;DHT22;38372;52.902;6.024;2023-11-21T17:19:36;5.90;99.90
52459;DHT22;38372;52.902;6.024;2023-11-21T17:22:02;5.90;99.90
52459;DHT22;38372;52.902;6.024;2023-11-21T17:24:30;5.80;99.90
52459;DHT22;38372;52.902;6.024;2023-11-21T17:26:59;5.70;99.90
52459;DHT22;38372;52.902;6.024;2023-11-21T17:29:25;5.70;99.90
52459;DHT22;38372;52.902;6.024;2023-11-21T17:31:52;5.60;99.90
52459;DHT22;38372;52.902;6.024;2023-11-21T17:34:18;5.60;99.90
52459;DHT22;38372;52.902;6.024;2023-11-21T17:36:45;5.50;99.90
52459;DHT22;38372;52.902;6.024;2023-11-21T17:39:11;5.40;99.90
52459;DHT22;38372;52.902;6.024;2023-11-21T17:41:38;5.40;99.90
52459;DHT22;38372;52.902;6.024;2023-11-21T17:44:04;5.30;99.90
52459;DHT22;38372;52.902;6.024;2023-11-21T17:46:32;5.20;99.90
52459;DHT22;38372;52.902;6.024;2023-11-21T17:48:58;5.10;99.90
52459;DHT22;38372;52.902;6.024;2023-11-21T17:51:24;5.00;99.90
52459;DHT22;38372;52.902;6.024;2023-11-21T17:53:51;5.00;99.90
52459;DHT22;38372;52.902;6.024;2023-11-21T17:56:17;5.00;99.90
52459;DHT22;38372;52.902;6.024;2023-11-21T17:58:45;5.00;99.90
52459;DHT22;38372;52.902;6.024;2023-11-21T18:01:11;5.00;99.90
52459;DHT22;38372;52.902;6.024;2023-11-21T18:03:38;5.00;99.90
52459;DHT22;38372;52.902;6.024;2023-11-21T18:06:04;5.10;99.90
52459;DHT22;38372;52.902;6.024;2023-11-21T18:08:30;5.00;99.90
52459;DHT22;38372;52.902;6.024;2023-11-21T18:10:56;5.00;99.90
52459;DHT22;38372;52.902;6.024;2023-11-21T18:13:25;5.00;99.90
52459;DHT22;38372;52.902;6.024;2023-11-21T18:15:51;5.00;99.90
52459;DHT22;38372;52.902;6.024;2023-11-21T18:18:17;4.90;99.90
52459;DHT22;38372;52.902;6.024;2023-11-21T18:20:43;4.90;99.90
52459;DHT22;38372;52.902;6.024;2023-11-21T18:23:11;4.80;99.90
52459;DHT22;38372;52.902;6.024;2023-11-21T18:25:37;4.70;99.90
52459;DHT22;38372;52.902;6.024;2023-11-21T18:28:04;4.70;99.90
52459;DHT22;38372;52.902;6.024;2023-11-21T18:30:30;4.60;99.90
52459;DHT22;38372;52.902;6.024;2023-11-21T18:32:56;4.60;99.90
52459;DHT22;38372;52.902;6.024;2023-11-21T18:35:21;4.60;99.90
52459;DHT22;38372;52.902;6.024;2023-11-21T18:37:48;4.50;99.90
52459;DHT22;38372;52.902;6.024;2023-11-21T18:40:14;4.50;99.90
52459;DHT22;38372;52.902;6.024;2023-11-21T18:42:41;4.40;99.90
52459;DHT22;38372;52.902;6.024;2023-11-21T18:45:10;4.40;99.90
52459;DHT22;38372;52.902;6.024;2023-11-21T18:47:36;4.30;99.90
52459;DHT22;38372;52.902;6.024;2023-11-21T18:50:02;4.30;99.90
52459;DHT22;38372;52.902;6.024;2023-11-21T18:52:28;4.30;99.90
52459;DHT22;38372;52.902;6.024;2023-11-21T18:54:54;4.30;99.90
52459;DHT22;38372;52.902;6.024;2023-11-21T18:57:20;4.30;99.90
52459;DHT22;38372;52.902;6.024;2023-11-21T18:59:54;4.20;99.90
52459;DHT22;38372;52.902;6.024;2023-11-21T19:02:20;4.20;99.90
52459;DHT22;38372;52.902;6.024;2023-11-21T19:04:46;4.20;99.90
52459;DHT22;38372;52.902;6.024;2023-11-21T19:07:14;4.20;99.90
52459;DHT22;38372;52.902;6.024;2023-11-21T19:09:41;4.20;99.90
52459;DHT22;38372;52.902;6.024;2023-11-21T19:12:07;4.20;99.90
52459;DHT22;38372;52.902;6.024;2023-11-21T19:14:34;4.20;99.90
52459;DHT22;38372;52.902;6.024;2023-11-21T19:17:00;4.20;99.90
52459;DHT22;38372;52.902;6.024;2023-11-21T19:19:29;4.20;99.90
52459;DHT22;38372;52.902;6.024;2023-11-21T19:21:56;4.20;99.90
52459;DHT22;38372;52.902;6.024;2023-11-21T19:24:22;4.30;99.90
52459;DHT22;38372;52.902;6.024;2023-11-21T19:26:48;4.40;99.90
52459;DHT22;38372;52.902;6.024;2023-11-21T19:29:15;4.40;99.90
52459;DHT22;38372;52.902;6.024;2023-11-21T19:31:41;4.50;99.90
52459;DHT22;38372;52.902;6.024;2023-11-21T19:34:10;4.60;99.90
52459;DHT22;38372;52.902;6.024;2023-11-21T19:36:39;4.60;99.90
52459;DHT22;38372;52.902;6.024;2023-11-21T19:39:06;4.70;99.90
52459;DHT22;38372;52.902;6.024;2023-11-21T19:41:33;4.80;99.90
52459;DHT22;38372;52.902;6.024;2023-11-21T19:43:59;4.80;99.90
52459;DHT22;38372;52.902;6.024;2023-11-21T19:46:25;4.90;99.90
52459;DHT22;38372;52.902;6.024;2023-11-21T19:48:51;4.90;99.90
52459;DHT22;38372;52.902;6.024;2023-11-21T19:51:18;5.00;99.90
52459;DHT22;38372;52.902;6.024;2023-11-21T19:53:44;5.00;99.90
52459;DHT22;38372;52.902;6.024;2023-11-21T19:56:10;5.10;99.90
52459;DHT22;38372;52.902;6.024;2023-11-21T19:58:36;5.10;99.90
52459;DHT22;38372;52.902;6.024;2023-11-21T20:01:02;5.10;99.90
52459;DHT22;38372;52.902;6.024;2023-11-21T20:03:28;5.20;99.90
52459;DHT22;38372;52.902;6.024;2023-11-21T20:05:54;5.20;99.90
52459;DHT22;38372;52.902;6.024;2023-11-21T20:08:20;5.20;99.90
52459;DHT22;38372;52.902;6.024;2023-11-21T20:10:46;5.30;99.90
52459;DHT22;38372;52.902;6.024;2023-11-21T20:13:12;5.30;99.90
52459;DHT22;38372;52.902;6.024;2023-11-21T20:15:39;5.30;99.90
52459;DHT22;38372;52.902;6.024;2023-11-21T20:18:06;5.30;99.90
52459;DHT22;38372;52.902;6.024;2023-11-21T20:20:32;5.20;99.90
52459;DHT22;38372;52.902;6.024;2023-11-21T20:22:58;5.20;99.90
52459;DHT22;38372;52.902;6.024;2023-11-21T20:25:27;5.10;99.90
52459;DHT22;38372;52.902;6.024;2023-11-21T20:27:54;5.00;99.90
52459;DHT22;38372;52.902;6.024;2023-11-21T20:30:21;4.90;99.90
52459;DHT22;38372;52.902;6.024;2023-11-21T20:32:48;4.90;99.90
52459;DHT22;38372;52.902;6.024;2023-11-21T20:35:19;4.70;99.90
52459;DHT22;38372;52.902;6.024;2023-11-21T20:37:48;4.70;99.90
52459;DHT22;38372;52.902;6.024;2023-11-21T20:40:15;4.60;99.90
52459;DHT22;38372;52.902;6.024;2023-11-21T20:42:42;4.60;99.90
52459;DHT22;38372;52.902;6.024;2023-11-21T20:45:13;4.50;99.90
52459;DHT22;38372;52.902;6.024;2023-11-21T20:47:42;4.50;99.90
52459;DHT22;38372;52.902;6.024;2023-11-21T20:50:09;4.40;99.90
52459;DHT22;38372;52.902;6.024;2023-11-21T20:52:36;4.30;99.90
52459;DHT22;38372;52.902;6.024;2023-11-21T20:55:02;4.30;99.90
52459;DHT22;38372;52.902;6.024;2023-11-21T20:57:28;4.20;99.90
52459;DHT22;38372;52.902;6.024;2023-11-21T20:59:54;4.20;99.90
52459;DHT22;38372;52.902;6.024;2023-11-21T21:02:19;4.20;99.90
52459;DHT22;38372;52.902;6.024;2023-11-21T21:04:45;4.10;99.90
52459;DHT22;38372;52.902;6.024;2023-11-21T21:07:11;4.10;99.90
52459;DHT22;38372;52.902;6.024;2023-11-21T21:09:38;4.00;99.90
52459;DHT22;38372;52.902;6.024;2023-11-21T21:12:04;4.00;99.90
52459;DHT22;38372;52.902;6.024;2023-11-21T21:14:30;3.90;99.90
52459;DHT22;38372;52.902;6.024;2023-11-21T21:16:56;3.90;99.90
52459;DHT22;38372;52.902;6.024;2023-11-21T21:19:25;4.00;99.90
52459;DHT22;38372;52.902;6.024;2023-11-21T21:21:52;4.00;99.90
52459;DHT22;38372;52.902;6.024;2023-11-21T21:24:17;4.00;99.90
52459;DHT22;38372;52.902;6.024;2023-11-21T21:26:43;4.00;99.90
52459;DHT22;38372;52.902;6.024;2023-11-21T21:29:10;4.00;99.90
52459;DHT22;38372;52.902;6.024;2023-11-21T21:31:36;3.90;99.90
52459;DHT22;38372;52.902;6.024;2023-11-21T21:34:05;3.90;99.90
52459;DHT22;38372;52.902;6.024;2023-11-21T21:36:31;3.90;99.90
52459;DHT22;38372;52.902;6.024;2023-11-21T21:38:59;3.90;99.90
52459;DHT22;38372;52.902;6.024;2023-11-21T21:41:25;3.90;99.90
52459;DHT22;38372;52.902;6.024;2023-11-21T21:43:51;3.90;99.90
52459;DHT22;38372;52.902;6.024;2023-11-21T21:46:17;3.90;99.90
52459;DHT22;38372;52.902;6.024;2023-11-21T21:48:46;3.90;99.90
52459;DHT22;38372;52.902;6.024;2023-11-21T21:51:16;4.00;99.90
52459;DHT22;38372;52.902;6.024;2023-11-21T21:53:43;3.90;99.90
52459;DHT22;38372;52.902;6.024;2023-11-21T21:56:09;4.00;99.90
52459;DHT22;38372;52.902;6.024;2023-11-21T21:58:34;4.00;99.90
52459;DHT22;38372;52.902;6.024;2023-11-21T22:01:02;4.10;99.90
52459;DHT22;38372;52.902;6.024;2023-11-21T22:03:30;4.10;99.90
52459;DHT22;38372;52.902;6.024;2023-11-21T22:05:57;4.20;99.90
52459;DHT22;38372;52.902;6.024;2023-11-21T22:08:24;4.20;99.90
52459;DHT22;38372;52.902;6.024;2023-11-21T22:10:50;4.20;99.90
52459;DHT22;38372;52.902;6.024;2023-11-21T22:13:16;4.30;99.90
52459;DHT22;38372;52.902;6.024;2023-11-21T22:15:42;4.30;99.90
52459;DHT22;38372;52.902;6.024;2023-11-21T22:18:07;4.30;99.90
52459;DHT22;38372;52.902;6.024;2023-11-21T22:20:35;4.40;99.90
52459;DHT22;38372;52.902;6.024;2023-11-21T22:23:01;4.40;99.90
52459;DHT22;38372;52.902;6.024;2023-11-21T22:25:28;4.40;99.90
52459;DHT22;38372;52.902;6.024;2023-11-21T22:27:54;4.40;99.90
52459;DHT22;38372;52.902;6.024;2023-11-21T22:30:20;4.50;99.90
52459;DHT22;38372;52.902;6.024;2023-11-21T22:32:46;4.50;99.90
52459;DHT22;38372;52.902;6.024;2023-11-21T22:35:12;4.50;99.90
52459;DHT22;38372;52.902;6.024;2023-11-21T22:37:55;4.60;99.90
52459;DHT22;38372;52.902;6.024;2023-11-21T22:40:32;4.60;99.90
52459;DHT22;38372;52.902;6.024;2023-11-21T22:42:58;4.60;99.90
52459;DHT22;38372;52.902;6.024;2023-11-21T22:45:24;4.60;99.90
52459;DHT22;38372;52.902;6.024;2023-11-21T22:47:50;4.70;99.90
52459;DHT22;38372;52.902;6.024;2023-11-21T22:50:16;4.70;99.90
52459;DHT22;38372;52.902;6.024;2023-11-21T22:52:42;4.70;99.90
52459;DHT22;38372;52.902;6.024;2023-11-21T22:55:08;4.70;99.90
52459;DHT22;38372;52.902;6.024;2023-11-21T22:57:34;4.80;99.90
52459;DHT22;38372;52.902;6.024;2023-11-21T23:00:01;4.80;99.90
52459;DHT22;38372;52.902;6.024;2023-11-21T23:02:29;4.80;99.90
52459;DHT22;38372;52.902;6.024;2023-11-21T23:04:56;4.90;99.90
52459;DHT22;38372;52.902;6.024;2023-11-21T23:07:22;4.80;99.90
52459;DHT22;38372;52.902;6.024;2023-11-21T23:09:48;4.90;99.90
52459;DHT22;38372;52.902;6.024;2023-11-21T23:12:14;4.90;99.90
52459;DHT22;38372;52.902;6.024;2023-11-21T23:14:40;4.80;99.90
52459;DHT22;38372;52.902;6.024;2023-11-21T23:17:05;4.90;99.90
52459;DHT22;38372;52.902;6.024;2023-11-21T23:19:31;4.90;99.90
52459;DHT22;38372;52.902;6.024;2023-11-21T23:21:58;4.90;99.90